createdAt,value
2018-03-07T00:03:55.017Z,32.90
2018-03-07T00:08:57.660Z,38.93
2018-03-07T00:14:00.303Z,36.93
2018-03-07T00:19:03.012Z,39.30
2018-03-07T00:24:05.917Z,37.60
2018-03-07T00:29:09.296Z,37.40
2018-03-07T00:34:12.024Z,35.70
2018-03-07T00:39:15.493Z,35.40
2018-03-07T00:44:18.320Z,34.33
2018-03-07T00:49:21.216Z,34.67
2018-03-07T00:54:23.955Z,30.97
2018-03-07T00:59:26.649Z,35.47
2018-03-07T01:04:29.384Z,37.07
2018-03-07T01:09:32.022Z,42.20
2018-03-07T01:14:35.056Z,39.60
2018-03-07T01:19:37.938Z,39.03
2018-03-07T01:24:40.848Z,38.77
2018-03-07T01:29:43.701Z,37.53
2018-03-07T01:34:46.309Z,36.37
2018-03-07T01:39:48.981Z,39.03
2018-03-07T01:44:52.375Z,37.10
2018-03-07T01:49:55.042Z,36.67
2018-03-07T01:54:57.740Z,40.37
2018-03-07T02:00:01.879Z,39.73
2018-03-07T02:05:04.619Z,40.67
2018-03-07T02:10:07.271Z,39.50
2018-03-07T02:15:10.009Z,39.60
2018-03-07T02:20:12.632Z,37.47
2018-03-07T02:25:16.856Z,36.47
2018-03-07T02:30:19.693Z,33.47
2018-03-07T02:35:22.373Z,37.40
2018-03-07T02:40:25.273Z,32.23
2018-03-07T02:45:27.993Z,44.30
2018-03-07T02:50:30.730Z,41.80
2018-03-07T02:55:34.013Z,38.73
2018-03-07T03:00:36.622Z,36.60
2018-03-07T03:05:39.282Z,41.00
2018-03-07T03:10:42.838Z,39.60
2018-03-07T03:15:45.475Z,36.23
2018-03-07T03:20:49.091Z,40.67
2018-03-07T03:25:52.920Z,37.93
2018-03-07T03:30:55.610Z,35.10
2018-03-07T03:35:58.315Z,39.00
2018-03-07T03:41:03.349Z,38.17
2018-03-07T03:46:06.627Z,40.80
2018-03-07T03:51:10.083Z,38.30
2018-03-07T03:56:13.488Z,40.23
2018-03-07T04:01:17.771Z,41.37
2018-03-07T04:06:21.174Z,38.10
2018-03-07T04:11:23.831Z,37.90
2018-03-07T04:16:27.320Z,38.53
2018-03-07T04:21:29.931Z,42.40
2018-03-07T04:26:32.837Z,38.77
2018-03-07T04:31:35.523Z,42.80
2018-03-07T04:36:38.224Z,47.80
2018-03-07T04:41:40.875Z,47.40
2018-03-07T04:46:44.242Z,46.13
2018-03-07T04:51:47.369Z,45.00
2018-03-07T04:56:50.043Z,42.60
2018-03-07T05:01:52.702Z,49.30
2018-03-07T05:06:56.063Z,45.10
2018-03-07T05:11:59.490Z,45.50
2018-03-07T05:17:02.395Z,42.63
2018-03-07T05:22:05.176Z,43.87
2018-03-07T05:27:08.007Z,49.27
2018-03-07T05:32:10.856Z,40.10
2018-03-07T05:37:14.438Z,46.20
2018-03-07T05:42:17.855Z,42.93
2018-03-07T05:47:20.522Z,40.03
2018-03-07T05:52:23.208Z,39.60
2018-03-07T05:57:26.025Z,30.67
2018-03-07T06:02:28.769Z,28.30
2018-03-07T06:07:31.500Z,25.07
2018-03-07T06:12:34.149Z,27.47
2018-03-07T06:17:37.390Z,28.97
2018-03-07T06:22:39.984Z,26.97
2018-03-07T06:27:42.841Z,28.47
2018-03-07T06:32:46.093Z,27.10
2018-03-07T06:37:48.759Z,27.33
2018-03-07T06:42:52.910Z,25.73
2018-03-07T06:47:56.175Z,23.67
2018-03-07T06:52:58.770Z,21.10
2018-03-07T06:58:02.381Z,21.90
2018-03-07T07:03:05.735Z,22.50
2018-03-07T07:08:08.337Z,21.70
2018-03-07T07:13:11.622Z,16.43
2018-03-07T07:18:14.383Z,17.83
2018-03-07T07:23:18.550Z,18.40
2018-03-07T07:28:21.177Z,20.00
2018-03-07T07:33:24.674Z,22.90
2018-03-07T07:38:27.959Z,19.30
2018-03-07T07:43:31.373Z,15.63
2018-03-07T07:48:34.858Z,17.90
2018-03-07T07:53:37.772Z,18.30
2018-03-07T07:58:40.356Z,20.70
2018-03-07T08:03:43.246Z,17.30
2018-03-07T08:08:46.104Z,16.10
2018-03-07T08:13:48.928Z,17.33
2018-03-07T08:18:52.507Z,19.13
2018-03-07T08:23:55.759Z,17.30
2018-03-07T08:28:59.838Z,15.17
2018-03-07T08:34:02.605Z,11.97
2018-03-07T08:39:05.233Z,15.53
2018-03-07T08:44:07.879Z,15.03
2018-03-07T08:49:13.830Z,14.40
2018-03-07T08:54:16.804Z,13.30
2018-03-07T08:59:19.452Z,15.57
2018-03-07T09:04:22.428Z,15.50
2018-03-07T09:09:25.073Z,11.50
2018-03-07T09:14:27.746Z,15.03
2018-03-07T09:19:30.641Z,13.17
2018-03-07T09:24:34.816Z,13.60
2018-03-07T09:29:38.149Z,14.40
2018-03-07T09:34:40.920Z,12.47
2018-03-07T09:39:43.817Z,13.30
2018-03-07T09:44:46.403Z,14.23
2018-03-07T09:49:49.043Z,14.00
2018-03-07T09:54:52.485Z,13.03
2018-03-07T09:59:55.078Z,12.40
2018-03-07T10:04:57.694Z,10.70
2018-03-07T10:10:02.619Z,11.67
2018-03-07T10:15:05.884Z,9.33
2018-03-07T10:20:09.241Z,10.30
2018-03-07T10:25:11.900Z,10.57
2018-03-07T10:30:15.207Z,9.70
2018-03-07T10:35:17.806Z,9.27
2018-03-07T10:40:21.094Z,7.60
2018-03-07T10:45:24.078Z,9.40
2018-03-07T10:50:27.400Z,7.77
2018-03-07T10:55:33.375Z,8.90
2018-03-07T11:00:37.159Z,7.43
2018-03-07T11:05:40.554Z,6.20
2018-03-07T11:10:43.357Z,8.50
2018-03-07T11:15:46.229Z,6.50
2018-03-07T11:20:49.054Z,6.70
2018-03-07T11:25:52.378Z,6.57
2018-03-07T11:30:55.197Z,4.97
2018-03-07T11:35:58.823Z,4.80
2018-03-07T11:41:02.934Z,5.10
2018-03-07T11:46:05.511Z,6.00
2018-03-07T11:51:08.754Z,4.40
2018-03-07T11:56:11.422Z,5.37
2018-03-07T12:01:14.609Z,7.00
2018-03-07T12:06:18.571Z,7.43
2018-03-07T12:11:21.804Z,8.13
2018-03-07T12:16:25.035Z,8.53
2018-03-07T12:21:27.831Z,8.40
2018-03-07T12:26:30.808Z,13.27
2018-03-07T12:31:33.655Z,8.47
2018-03-07T12:36:36.500Z,6.20
2018-03-07T12:41:39.173Z,8.27
2018-03-07T12:46:42.443Z,7.63
2018-03-07T12:51:45.660Z,7.00
2018-03-07T12:56:48.460Z,7.80
2018-03-07T13:01:51.711Z,6.60
2018-03-07T13:06:54.313Z,7.50
2018-03-07T13:11:57.626Z,7.10
2018-03-07T13:17:01.220Z,7.87
2018-03-07T13:22:03.827Z,5.50
2018-03-07T13:27:06.376Z,6.73
2018-03-07T13:32:08.916Z,6.83
2018-03-07T13:37:11.683Z,5.30
2018-03-07T13:42:14.877Z,5.17
2018-03-07T13:47:17.692Z,3.30
2018-03-07T13:52:20.966Z,2.17
2018-03-07T13:57:24.274Z,2.37
2018-03-07T14:02:28.425Z,1.87
2018-03-07T14:07:32.556Z,2.43
2018-03-07T14:12:35.798Z,2.23
2018-03-07T14:17:38.349Z,1.90
2018-03-07T14:22:42.709Z,1.60
2018-03-07T14:27:45.302Z,1.87
2018-03-07T14:32:49.366Z,1.73
2018-03-07T14:37:52.537Z,2.27
2018-03-07T14:42:55.883Z,2.00
2018-03-07T14:47:58.437Z,1.60
2018-03-07T14:53:01.008Z,1.60
2018-03-07T14:58:03.613Z,2.10
2018-03-07T15:03:06.170Z,1.73
2018-03-07T15:08:08.744Z,1.93
2018-03-07T15:13:12.020Z,2.00
2018-03-07T15:18:14.570Z,2.07
2018-03-07T15:23:17.909Z,2.73
2018-03-07T15:28:20.808Z,2.03
2018-03-07T15:33:23.407Z,2.90
2018-03-07T15:38:26.246Z,2.10
2018-03-07T15:43:29.809Z,2.20
2018-03-07T15:48:33.032Z,1.67
2018-03-07T15:53:35.613Z,1.90
2018-03-07T15:58:38.195Z,1.90
2018-03-07T16:03:40.761Z,1.60
2018-03-07T16:08:43.696Z,1.60
2018-03-07T16:13:46.572Z,2.27
2018-03-07T16:18:49.152Z,2.23
2018-03-07T16:23:51.726Z,2.93
2018-03-07T16:28:55.036Z,2.40
2018-03-07T16:34:00.923Z,3.30
2018-03-07T16:39:04.179Z,2.03
2018-03-07T16:44:06.760Z,2.40
2018-03-07T16:49:10.743Z,2.40
2018-03-07T16:54:13.564Z,2.97
2018-03-07T16:59:17.699Z,2.13
2018-03-07T17:04:20.308Z,5.00
2018-03-07T17:09:22.886Z,3.13
2018-03-07T17:14:25.480Z,5.00
2018-03-07T17:19:28.093Z,5.07
2018-03-07T17:24:31.395Z,3.17
2018-03-07T17:29:35.144Z,7.90
2018-03-07T17:34:37.729Z,7.73
2018-03-07T17:39:40.316Z,3.60
2018-03-07T17:44:42.923Z,3.40
2018-03-07T17:49:45.553Z,3.43
2018-03-07T17:54:48.640Z,2.00
2018-03-07T17:59:51.468Z,2.23
2018-03-07T18:04:54.188Z,2.53
2018-03-07T18:09:57.108Z,2.03
2018-03-07T18:15:02.005Z,2.00
2018-03-07T18:20:06.090Z,2.93
2018-03-07T18:25:09.446Z,1.97
2018-03-07T18:30:12.134Z,1.47
2018-03-07T18:35:15.091Z,1.53
2018-03-07T18:40:18.320Z,1.50
2018-03-07T18:45:21.319Z,2.93
2018-03-07T18:50:25.170Z,2.40
2018-03-07T18:55:28.567Z,1.73
2018-03-07T19:00:34.728Z,3.03
2018-03-07T19:05:37.447Z,2.27
2018-03-07T19:10:40.829Z,2.30
2018-03-07T19:15:43.453Z,3.60
2018-03-07T19:20:47.219Z,3.00
2018-03-07T19:25:49.842Z,3.20
2018-03-07T19:30:53.238Z,1.93
2018-03-07T19:35:55.836Z,2.37
2018-03-07T19:40:59.108Z,2.53
2018-03-07T19:46:01.803Z,3.90
2018-03-07T19:51:04.393Z,2.73
2018-03-07T19:56:07.679Z,3.07
2018-03-07T20:01:10.475Z,2.73
2018-03-07T20:06:13.115Z,2.33
2018-03-07T20:11:17.751Z,2.50
2018-03-07T20:16:23.644Z,2.63
2018-03-07T20:21:26.895Z,3.20
2018-03-07T20:26:30.238Z,3.30
2018-03-07T20:31:33.125Z,5.10
2018-03-07T20:36:36.129Z,4.57
2018-03-07T20:41:39.230Z,3.30
2018-03-07T20:46:43.697Z,2.67
2018-03-07T20:51:47.268Z,2.87
2018-03-07T20:56:49.954Z,3.27
2018-03-07T21:01:52.616Z,2.63
2018-03-07T21:06:55.893Z,2.73
2018-03-07T21:11:59.209Z,2.27
2018-03-07T21:17:01.867Z,2.40
2018-03-07T21:22:04.748Z,1.73
2018-03-07T21:27:08.179Z,2.30
2018-03-07T21:32:12.415Z,2.33
2018-03-07T21:37:15.086Z,2.50
2018-03-07T21:42:18.004Z,2.87
2018-03-07T21:47:24.256Z,3.10
2018-03-07T21:52:27.121Z,2.73
2018-03-07T21:57:30.810Z,1.90
2018-03-07T22:02:33.521Z,2.93
2018-03-07T22:07:36.209Z,2.30
2018-03-07T22:12:38.884Z,2.60
2018-03-07T22:17:42.284Z,2.70
2018-03-07T22:22:45.087Z,1.90
2018-03-07T22:27:48.626Z,2.17
2018-03-07T22:32:51.372Z,1.83
2018-03-07T22:37:54.365Z,2.37
2018-03-07T22:42:57.031Z,2.03
2018-03-07T22:48:00.646Z,2.00
2018-03-07T22:53:03.405Z,2.57
2018-03-07T22:58:06.728Z,2.63
2018-03-07T23:03:09.552Z,2.47
2018-03-07T23:08:12.206Z,2.03
2018-03-07T23:13:15.555Z,2.20
2018-03-07T23:18:18.419Z,1.60
2018-03-07T23:23:21.368Z,2.10
2018-03-07T23:28:24.187Z,1.70
2018-03-07T23:33:27.023Z,3.27
2018-03-07T23:38:29.679Z,2.20
2018-03-07T23:43:33.859Z,2.20
2018-03-07T23:48:37.336Z,2.03
2018-03-07T23:53:40.617Z,1.93
2018-03-07T23:58:45.632Z,1.93
